Prefeito Renato Moreira Airport
SBIZ : now visible

Airfield :











YOU CAN JOIN US ON...

 
LOGIN :

Register | Disclaimer

   EN    FR    IT 

 









Legend :    VFR   Marginal VFR   IFR   Intensive IFR   Very Intensive IFR
Visi :
Ceiling :
>= 8 km
>= 3000ft
5 to 8 km
1000 to 3000 ft
1500m to 5 km
500 to 1000 ft
800 to 1500m
200 to 500 ft
< 800m
< 200 ft
Symbols :   Thunderstorms  Fog  Heavy snow  Heavy precipitations  Wind > 20 kt






- Airport Elevation : 432 ft
- IATA code : IMP


SBIZ - Prefeito Renato Moreira

CURRENT METAR :
  • 180600Z 09002KT CAVOK 25/20 Q1010

EXPIRED METARs :
  • 180500Z 00000KT CAVOK 26/20 Q1010
  • 180400Z 00000KT CAVOK 26/20 Q1010

TAF TAF SBIZ
Valid from the 18 at 00:00 until the 18 at 12:00 UTC


172030Z 1800/1812 00000KT CAVOK TN23/1809Z TX31/1812Z
PROB40 1808/1810 5000 HZ NSC
BECMG 1810/1812 11010KT FEW020 RMK PHN
SBAZ FIR / South America



MET'MAP, your aeronautical weather chart ! - Copyright ORBIFLY December 2007 - Disclaimer

ORBIFLY MET'MAP TEAM :

Programming & Development : Alexandra Zaïnal
Concept & original design : Baudouin d'Aumeries
Assistance for programming : Marc-Olivier Méhu
Technical & hardware support : Manuel Goepfert

Contact : metmap@orbifly.com




SOURCES & CREDITS :

   NOAA       Earth
Advisory